Time;durP1;ratioP1;P1;durP2;ratioP2;P2;SDS_P1;SDS_P2;PMS_P1;PMS_P2;Temp;Humidity;BMP_temperature;BMP_pressure;BME280_temperature;BME280_humidity;BME280_pressure;Samples;Min_cycle;Max_cycle;Signal;HPM_P1;HPM_P2
2023/05/02 00:01:45;;;;;;;6.70;5.33;;;;;;;;;;6281714;28;20211;-68
2023/05/02 00:04:47;;;;;;;6.77;5.20;;;;;;;;;;6281755;28;20196;-68
2023/05/02 00:07:48;;;;;;;6.50;5.10;;;;;;;;;;6307007;28;20253;-68
2023/05/02 00:10:49;;;;;;;5.50;5.00;;;;;;;;;;6297924;28;20192;-68
2023/05/02 00:13:50;;;;;;;6.10;5.50;;;;;;;;;;6298148;28;20193;-68
2023/05/02 00:16:51;;;;;;;6.70;6.07;;;;;;;;;;6281590;28;20193;-68
2023/05/02 00:19:52;;;;;;;5.37;4.90;;;;;;;;;;6311016;28;20188;-68
2023/05/02 00:22:55;;;;;;;5.93;5.00;;;;;;;;;;6308668;28;20212;-68
2023/05/02 00:25:56;;;;;;;6.77;5.90;;;;;;;;;;6312161;28;20193;-68
2023/05/02 00:28:58;;;;;;;6.10;5.50;;;;;;;;;;6303658;28;20192;-68
2023/05/02 00:31:59;;;;;;;6.63;5.53;;;;;;;;;;6314846;28;20248;-68
2023/05/02 00:35:00;;;;;;;6.30;5.70;;;;;;;;;;6297822;28;20196;-68
2023/05/02 00:38:01;;;;;;;5.73;5.23;;;;;;;;;;6302931;28;20327;-68
2023/05/02 00:41:02;;;;;;;6.80;5.17;;;;;;;;;;6291036;28;20298;-68
2023/05/02 00:44:03;;;;;;;5.77;5.23;;;;;;;;;;6280905;28;20193;-68
2023/05/02 00:47:04;;;;;;;6.10;5.60;;;;;;;;;;6285870;28;20193;-68
2023/05/02 00:50:06;;;;;;;6.60;6.03;;;;;;;;;;6285930;28;20185;-68
2023/05/02 00:53:07;;;;;;;7.57;6.20;;;;;;;;;;6288826;28;20190;-68
2023/05/02 00:56:11;;;;;;;6.60;5.03;;;;;;;;;;6330852;28;20199;-68
2023/05/02 00:59:13;;;;;;;6.43;5.77;;;;;;;;;;6302503;28;20193;-68
2023/05/02 01:02:14;;;;;;;5.90;5.23;;;;;;;;;;6319038;28;20243;-68
2023/05/02 01:05:20;;;;;;;6.47;5.87;;;;;;;;;;6326563;28;20196;-68
2023/05/02 01:08:54;;;;;;;6.40;5.90;;;;;;;;;;6309804;28;20181;-68
2023/05/02 01:12:04;;;;;;;6.80;6.20;;;;;;;;;;6282960;28;20201;-68
2023/05/02 01:15:07;;;;;;;6.17;5.57;;;;;;;;;;6302184;28;20218;-68
2023/05/02 01:18:09;;;;;;;5.93;5.43;;;;;;;;;;6312410;28;20192;-68
2023/05/02 01:21:11;;;;;;;6.00;5.40;;;;;;;;;;6312007;28;20197;-68
2023/05/02 01:24:16;;;;;;;6.07;5.57;;;;;;;;;;6315465;28;20196;-68
2023/05/02 01:27:42;;;;;;;5.93;5.33;;;;;;;;;;6305086;28;20193;-68
2023/05/02 01:30:44;;;;;;;6.53;5.90;;;;;;;;;;6310514;28;20282;-68
2023/05/02 01:33:45;;;;;;;6.13;5.53;;;;;;;;;;6298194;28;20190;-68
2023/05/02 01:36:48;;;;;;;6.07;5.47;;;;;;;;;;6318200;28;20237;-68
2023/05/02 01:39:50;;;;;;;6.53;5.70;;;;;;;;;;6318969;28;20200;-68
2023/05/02 01:42:52;;;;;;;5.90;5.40;;;;;;;;;;6298693;28;20300;-68
2023/05/02 01:45:53;;;;;;;5.03;4.63;;;;;;;;;;6289526;28;20196;-68
2023/05/02 01:48:56;;;;;;;5.67;4.97;;;;;;;;;;6281323;28;20224;-68
2023/05/02 01:51:59;;;;;;;5.63;5.13;;;;;;;;;;6324251;28;20224;-68
2023/05/02 01:55:01;;;;;;;5.83;5.33;;;;;;;;;;6300933;28;20213;-68
2023/05/02 01:58:02;;;;;;;5.77;5.20;;;;;;;;;;6298678;28;20193;-68
2023/05/02 02:01:04;;;;;;;5.93;4.60;;;;;;;;;;6285055;28;20216;-68
2023/05/02 02:04:06;;;;;;;6.17;5.60;;;;;;;;;;6316652;28;20203;-68
2023/05/02 02:07:09;;;;;;;5.80;5.30;;;;;;;;;;6313117;28;20277;-68
2023/05/02 02:10:10;;;;;;;6.23;5.63;;;;;;;;;;6306622;28;20188;-68
2023/05/02 02:13:19;;;;;;;9.47;5.93;;;;;;;;;;6290586;28;20200;-68
2023/05/02 02:16:22;;;;;;;6.77;6.10;;;;;;;;;;6301099;28;20182;-68
2023/05/02 02:19:24;;;;;;;5.57;5.07;;;;;;;;;;6300491;28;20202;-68
2023/05/02 02:22:27;;;;;;;6.20;5.60;;;;;;;;;;6325241;28;20231;-68
2023/05/02 02:25:28;;;;;;;8.13;5.67;;;;;;;;;;6314593;28;20200;-68
2023/05/02 02:28:29;;;;;;;5.97;5.37;;;;;;;;;;6322288;28;20246;-68
2023/05/02 02:31:31;;;;;;;5.80;5.30;;;;;;;;;;6311475;28;20215;-68
2023/05/02 02:34:32;;;;;;;5.50;5.00;;;;;;;;;;6316776;28;20185;-68
2023/05/02 02:37:56;;;;;;;6.53;5.93;;;;;;;;;;6283642;28;20259;-68
2023/05/02 02:41:01;;;;;;;6.17;5.60;;;;;;;;;;6317529;28;20189;-68
2023/05/02 02:44:05;;;;;;;6.07;5.57;;;;;;;;;;6314777;28;20327;-67
2023/05/02 02:47:11;;;;;;;5.27;4.87;;;;;;;;;;6297576;28;20216;-67
2023/05/02 02:50:32;;;;;;;5.70;5.20;;;;;;;;;;6310292;28;20205;-68
2023/05/02 02:53:38;;;;;;;5.90;5.30;;;;;;;;;;6296772;28;20201;-68
2023/05/02 02:56:41;;;;;;;6.23;5.73;;;;;;;;;;6312661;28;20197;-68
2023/05/02 02:59:46;;;;;;;6.00;5.40;;;;;;;;;;6304222;28;20189;-68
2023/05/02 03:02:47;;;;;;;8.87;5.80;;;;;;;;;;6311340;28;20218;-68
2023/05/02 03:05:48;;;;;;;6.87;5.57;;;;;;;;;;6299007;28;20209;-68
2023/05/02 03:08:49;;;;;;;7.87;5.80;;;;;;;;;;6300471;28;20329;-68
2023/05/02 03:11:50;;;;;;;6.87;5.87;;;;;;;;;;6303000;28;20246;-68
2023/05/02 03:14:52;;;;;;;7.93;5.87;;;;;;;;;;6298460;28;20201;-67
2023/05/02 03:17:53;;;;;;;6.53;5.93;;;;;;;;;;6282800;28;20227;-67
2023/05/02 03:20:54;;;;;;;5.93;5.40;;;;;;;;;;6285706;28;20283;-67
2023/05/02 03:23:56;;;;;;;6.90;6.20;;;;;;;;;;6299280;28;20235;-67
2023/05/02 03:26:58;;;;;;;7.33;6.27;;;;;;;;;;6305596;28;20196;-67
2023/05/02 03:29:59;;;;;;;6.03;5.50;;;;;;;;;;6288077;28;20196;-67
2023/05/02 03:33:01;;;;;;;7.03;6.33;;;;;;;;;;6299027;28;20275;-67
2023/05/02 03:36:02;;;;;;;7.63;6.13;;;;;;;;;;6283479;28;20236;-67
2023/05/02 03:39:03;;;;;;;7.27;6.47;;;;;;;;;;6316410;28;20196;-67
2023/05/02 03:42:04;;;;;;;6.97;6.23;;;;;;;;;;6282333;28;20267;-67
2023/05/02 03:45:06;;;;;;;6.97;5.87;;;;;;;;;;6299263;28;20200;-67
2023/05/02 03:48:07;;;;;;;6.23;5.63;;;;;;;;;;6300452;28;20186;-67
2023/05/02 03:51:08;;;;;;;8.50;6.20;;;;;;;;;;6282478;28;20197;-67
2023/05/02 03:54:09;;;;;;;6.93;6.17;;;;;;;;;;6282127;28;20201;-67
2023/05/02 03:57:11;;;;;;;6.13;5.63;;;;;;;;;;6281694;28;20201;-68
2023/05/02 04:00:12;;;;;;;7.03;6.33;;;;;;;;;;6276826;28;20193;-70
2023/05/02 04:03:13;;;;;;;7.27;6.57;;;;;;;;;;6309173;28;20212;-68
2023/05/02 04:06:14;;;;;;;7.17;6.47;;;;;;;;;;6274331;28;20193;-69
2023/05/02 04:09:23;;;;;;;8.93;7.43;;;;;;;;;;6277651;28;20188;-69
2023/05/02 04:12:24;;;;;;;7.30;6.60;;;;;;;;;;6307273;28;20193;-68
2023/05/02 04:15:25;;;;;;;7.40;6.70;;;;;;;;;;6297710;28;20243;-67
2023/05/02 04:18:26;;;;;;;8.23;7.47;;;;;;;;;;6287413;28;20191;-70
2023/05/02 04:21:27;;;;;;;8.67;7.87;;;;;;;;;;6292642;28;20238;-69
2023/05/02 04:24:29;;;;;;;7.43;6.60;;;;;;;;;;6297979;28;20271;-69
2023/05/02 04:27:30;;;;;;;8.50;7.70;;;;;;;;;;6312787;28;20192;-68
2023/05/02 04:30:31;;;;;;;7.93;7.33;;;;;;;;;;6305120;28;20258;-69
2023/05/02 04:33:32;;;;;;;8.60;7.77;;;;;;;;;;6261780;28;20225;-68
2023/05/02 04:36:33;;;;;;;8.30;7.50;;;;;;;;;;6277520;28;20236;-68
2023/05/02 04:39:34;;;;;;;8.90;8.10;;;;;;;;;;6288522;28;20228;-68
2023/05/02 04:42:35;;;;;;;8.03;7.40;;;;;;;;;;6296607;28;20208;-68
2023/05/02 04:45:36;;;;;;;9.27;8.37;;;;;;;;;;6292397;28;20185;-68
2023/05/02 04:48:40;;;;;;;9.00;8.20;;;;;;;;;;6287716;28;20230;-68
2023/05/02 04:51:42;;;;;;;8.57;7.73;;;;;;;;;;6303362;28;20221;-67
2023/05/02 04:54:43;;;;;;;9.33;8.13;;;;;;;;;;6282612;28;20196;-67
2023/05/02 04:57:44;;;;;;;8.97;8.20;;;;;;;;;;6287974;28;20201;-67
2023/05/02 05:00:45;;;;;;;9.10;8.03;;;;;;;;;;6279856;28;20195;-68
2023/05/02 05:03:46;;;;;;;9.00;8.10;;;;;;;;;;6306806;28;20237;-68
2023/05/02 05:06:48;;;;;;;9.60;8.70;;;;;;;;;;6305077;28;20197;-68
2023/05/02 05:09:49;;;;;;;8.60;7.83;;;;;;;;;;6278883;28;20194;-66
2023/05/02 05:12:50;;;;;;;9.43;8.53;;;;;;;;;;6314514;28;20193;-64
2023/05/02 05:15:51;;;;;;;9.43;8.40;;;;;;;;;;6312250;28;20192;-64
2023/05/02 05:18:52;;;;;;;8.50;7.70;;;;;;;;;;6283031;28;20192;-66
2023/05/02 05:21:53;;;;;;;9.03;8.23;;;;;;;;;;6289400;28;20237;-68
2023/05/02 05:24:54;;;;;;;8.50;7.70;;;;;;;;;;6290094;28;20192;-70
2023/05/02 05:27:55;;;;;;;8.50;7.67;;;;;;;;;;6325401;28;20180;-69
2023/05/02 05:30:56;;;;;;;8.83;7.90;;;;;;;;;;6295976;28;20193;-69
2023/05/02 05:33:57;;;;;;;10.43;8.63;;;;;;;;;;6280329;28;20200;-68
2023/05/02 05:36:59;;;;;;;10.90;8.10;;;;;;;;;;6281147;28;20243;-66
2023/05/02 05:40:00;;;;;;;9.50;8.20;;;;;;;;;;6284875;28;20205;-67
2023/05/02 05:43:02;;;;;;;10.13;9.13;;;;;;;;;;6301688;28;20232;-68
2023/05/02 05:46:03;;;;;;;9.13;8.03;;;;;;;;;;6287038;28;20185;-70
2023/05/02 05:49:04;;;;;;;9.83;8.90;;;;;;;;;;6299721;28;20188;-66
2023/05/02 05:52:05;;;;;;;10.67;8.50;;;;;;;;;;6280518;28;20197;-68
2023/05/02 05:55:06;;;;;;;15.40;9.10;;;;;;;;;;6301628;28;20228;-68
2023/05/02 05:58:08;;;;;;;10.37;8.93;;;;;;;;;;6293306;28;20192;-68
2023/05/02 06:01:09;;;;;;;10.43;9.20;;;;;;;;;;6317496;28;20185;-68
2023/05/02 06:04:10;;;;;;;11.77;9.30;;;;;;;;;;6301034;28;20189;-69
2023/05/02 06:07:11;;;;;;;10.07;8.97;;;;;;;;;;6292272;28;20197;-68
2023/05/02 06:10:12;;;;;;;12.43;8.37;;;;;;;;;;6284390;28;20188;-68
2023/05/02 06:13:13;;;;;;;9.37;8.47;;;;;;;;;;6300702;28;20197;-69
2023/05/02 06:16:14;;;;;;;11.63;9.73;;;;;;;;;;6284907;28;20283;-67
2023/05/02 06:19:15;;;;;;;10.40;9.23;;;;;;;;;;6287159;28;20245;-67
2023/05/02 06:22:16;;;;;;;11.97;10.77;;;;;;;;;;6300117;28;20221;-70
2023/05/02 06:25:17;;;;;;;12.33;10.17;;;;;;;;;;6277347;28;20193;-68
2023/05/02 06:28:18;;;;;;;12.63;11.33;;;;;;;;;;6303591;28;20212;-68
2023/05/02 06:31:19;;;;;;;11.60;10.40;;;;;;;;;;6293655;28;20185;-73
2023/05/02 06:34:20;;;;;;;15.60;11.50;;;;;;;;;;6282633;28;20302;-69
2023/05/02 06:37:21;;;;;;;11.83;10.60;;;;;;;;;;6283661;28;20320;-67
2023/05/02 06:40:22;;;;;;;14.17;12.67;;;;;;;;;;6272095;28;20193;-66
2023/05/02 06:43:23;;;;;;;14.00;12.50;;;;;;;;;;6284704;28;20224;-67
2023/05/02 06:46:27;;;;;;;12.70;11.10;;;;;;;;;;6288371;28;20206;-69
2023/05/02 06:49:28;;;;;;;15.83;12.30;;;;;;;;;;6298272;28;20200;-68
2023/05/02 06:52:29;;;;;;;14.23;12.57;;;;;;;;;;6298247;28;20192;-66
2023/05/02 06:55:31;;;;;;;17.43;14.03;;;;;;;;;;6289926;28;20196;-66
2023/05/02 06:58:32;;;;;;;15.17;13.50;;;;;;;;;;6295874;28;20261;-67
2023/05/02 07:01:33;;;;;;;16.37;14.30;;;;;;;;;;6296947;28;20213;-67
2023/05/02 07:04:34;;;;;;;13.83;12.40;;;;;;;;;;6301029;28;20193;-66
2023/05/02 07:07:35;;;;;;;14.17;12.33;;;;;;;;;;6297730;28;20189;-66
2023/05/02 07:10:36;;;;;;;15.80;12.50;;;;;;;;;;6297239;28;20216;-66
2023/05/02 07:13:37;;;;;;;15.70;13.97;;;;;;;;;;6294562;28;20277;-66
2023/05/02 07:16:38;;;;;;;14.93;12.47;;;;;;;;;;6277630;28;20193;-66
2023/05/02 07:19:39;;;;;;;14.00;12.47;;;;;;;;;;6280395;28;20253;-67
2023/05/02 07:22:40;;;;;;;18.33;14.10;;;;;;;;;;6297426;28;20224;-67
2023/05/02 07:25:41;;;;;;;14.70;13.20;;;;;;;;;;6297060;28;20193;-66
2023/05/02 07:28:42;;;;;;;14.40;12.90;;;;;;;;;;6288690;28;20196;-66
2023/05/02 07:31:43;;;;;;;14.37;12.30;;;;;;;;;;6279356;28;20197;-66
2023/05/02 07:34:44;;;;;;;12.60;11.30;;;;;;;;;;6280519;28;20216;-67
2023/05/02 07:37:45;;;;;;;12.40;11.17;;;;;;;;;;6305212;28;20203;-66
2023/05/02 07:40:46;;;;;;;11.50;10.30;;;;;;;;;;6280272;28;20191;-67
2023/05/02 07:43:48;;;;;;;11.70;10.40;;;;;;;;;;6277540;28;20208;-67
2023/05/02 07:46:49;;;;;;;14.20;10.40;;;;;;;;;;6312870;28;20185;-67
2023/05/02 07:49:51;;;;;;;10.60;9.27;;;;;;;;;;6320098;28;20184;-66
2023/05/02 07:52:52;;;;;;;10.50;9.47;;;;;;;;;;6304059;28;20219;-67
2023/05/02 07:55:53;;;;;;;9.97;8.83;;;;;;;;;;6306797;28;20193;-67
2023/05/02 07:58:54;;;;;;;11.07;8.60;;;;;;;;;;6272825;28;20196;-67
2023/05/02 08:01:55;;;;;;;10.40;8.97;;;;;;;;;;6312488;28;20259;-67
2023/05/02 08:04:56;;;;;;;11.37;8.47;;;;;;;;;;6289878;28;20193;-66
2023/05/02 08:07:57;;;;;;;12.30;8.50;;;;;;;;;;6304377;28;20186;-66
2023/05/02 08:10:58;;;;;;;9.23;8.30;;;;;;;;;;6278473;28;20250;-66
2023/05/02 08:13:59;;;;;;;8.30;7.50;;;;;;;;;;6311920;28;20193;-66
2023/05/02 08:17:00;;;;;;;12.40;7.57;;;;;;;;;;6280670;28;20189;-64
2023/05/02 08:20:01;;;;;;;9.23;7.33;;;;;;;;;;6278325;28;20229;-65
2023/05/02 08:23:02;;;;;;;7.73;6.93;;;;;;;;;;6296428;28;20236;-65
2023/05/02 08:26:03;;;;;;;7.30;6.60;;;;;;;;;;6286961;28;20194;-66
2023/05/02 08:29:04;;;;;;;7.63;6.90;;;;;;;;;;6290010;28;20208;-65
2023/05/02 08:32:06;;;;;;;7.67;6.83;;;;;;;;;;6280090;28;20200;-65
2023/05/02 08:35:07;;;;;;;6.67;6.03;;;;;;;;;;6278055;28;20239;-64
2023/05/02 08:38:08;;;;;;;6.63;6.03;;;;;;;;;;6279233;28;20189;-65
2023/05/02 08:41:17;;;;;;;7.03;6.33;;;;;;;;;;6279474;28;20186;-66
2023/05/02 08:44:18;;;;;;;6.37;5.87;;;;;;;;;;6296809;28;20207;-66
2023/05/02 08:47:20;;;;;;;7.47;5.80;;;;;;;;;;6301459;28;20246;-65
2023/05/02 08:50:21;;;;;;;5.70;5.20;;;;;;;;;;6291134;28;20201;-65
2023/05/02 08:53:23;;;;;;;6.67;6.07;;;;;;;;;;6314675;28;20223;-66
2023/05/02 08:56:24;;;;;;;6.27;5.40;;;;;;;;;;6313406;28;20181;-64
2023/05/02 08:59:25;;;;;;;6.30;5.80;;;;;;;;;;6278685;28;20199;-68
2023/05/02 09:02:45;;;;;;;5.40;4.90;;;;;;;;;;6319792;28;20223;-66
2023/05/02 09:05:51;;;;;;;4.80;4.40;;;;;;;;;;6294751;28;20304;-66
2023/05/02 09:08:52;;;;;;;4.60;4.20;;;;;;;;;;6305701;28;20190;-66
2023/05/02 09:11:53;;;;;;;4.87;4.37;;;;;;;;;;6282948;28;20193;-66
2023/05/02 09:15:14;;;;;;;5.00;4.47;;;;;;;;;;6283618;28;20200;-65
2023/05/02 09:18:20;;;;;;;4.47;4.07;;;;;;;;;;6299913;28;20290;-69
2023/05/02 09:21:25;;;;;;;4.57;4.17;;;;;;;;;;6316187;28;20194;-68
2023/05/02 09:24:26;;;;;;;4.07;3.77;;;;;;;;;;6294531;28;20190;-66
2023/05/02 09:27:27;;;;;;;3.70;3.40;;;;;;;;;;6303165;28;20215;-66
2023/05/02 09:30:28;;;;;;;3.60;3.30;;;;;;;;;;6306735;28;20199;-66
2023/05/02 09:33:30;;;;;;;3.50;3.10;;;;;;;;;;6295380;28;20249;-66
2023/05/02 09:36:38;;;;;;;3.40;3.10;;;;;;;;;;6281993;28;20241;-65
2023/05/02 09:39:39;;;;;;;3.53;2.80;;;;;;;;;;6305850;28;20277;-66
2023/05/02 09:42:40;;;;;;;3.47;2.90;;;;;;;;;;6299814;28;20230;-66
2023/05/02 09:45:41;;;;;;;3.63;3.10;;;;;;;;;;6281873;28;20216;-66
2023/05/02 09:48:53;;;;;;;2.67;2.43;;;;;;;;;;6282219;28;20242;-66
2023/05/02 09:52:09;;;;;;;3.10;2.90;;;;;;;;;;6299499;28;20212;-66
2023/05/02 09:55:21;;;;;;;3.23;2.93;;;;;;;;;;6298412;28;20194;-66
2023/05/02 09:58:23;;;;;;;3.50;2.80;;;;;;;;;;6318303;28;20309;-66
2023/05/02 10:01:24;;;;;;;3.67;2.83;;;;;;;;;;6305845;28;20197;-66
2023/05/02 10:04:25;;;;;;;3.40;3.10;;;;;;;;;;6275880;28;20205;-66
2023/05/02 10:07:26;;;;;;;3.23;2.93;;;;;;;;;;6298220;28;20200;-63
2023/05/02 10:10:27;;;;;;;2.53;2.33;;;;;;;;;;6289451;28;20184;-66
2023/05/02 10:13:33;;;;;;;3.10;2.87;;;;;;;;;;6310510;28;20195;-64
2023/05/02 10:16:36;;;;;;;3.50;3.20;;;;;;;;;;6292381;28;20203;-65
2023/05/02 10:19:38;;;;;;;3.27;2.97;;;;;;;;;;6291401;28;20281;-65
2023/05/02 10:22:40;;;;;;;3.10;2.53;;;;;;;;;;6292325;28;20215;-66
2023/05/02 10:25:41;;;;;;;3.30;2.90;;;;;;;;;;6283270;28;20190;-66
2023/05/02 10:28:42;;;;;;;2.80;2.60;;;;;;;;;;6291523;28;20220;-65
2023/05/02 10:31:44;;;;;;;2.70;2.50;;;;;;;;;;6292736;28;20192;-67
2023/05/02 10:34:45;;;;;;;3.63;2.63;;;;;;;;;;6325256;28;20193;-68
2023/05/02 10:37:47;;;;;;;3.27;2.60;;;;;;;;;;6281026;28;20288;-66
2023/05/02 10:40:57;;;;;;;3.27;2.90;;;;;;;;;;6292989;28;20190;-66
2023/05/02 10:43:59;;;;;;;3.03;2.70;;;;;;;;;;6298289;28;20210;-68
2023/05/02 10:47:00;;;;;;;2.40;2.20;;;;;;;;;;6279382;28;20183;-68
2023/05/02 10:50:02;;;;;;;2.40;2.20;;;;;;;;;;6298341;28;20189;-66
2023/05/02 10:53:21;;;;;;;3.57;2.60;;;;;;;;;;6298891;28;20237;-71
2023/05/02 10:56:25;;;;;;;2.60;2.40;;;;;;;;;;6301958;28;20189;-65
2023/05/02 10:59:27;;;;;;;3.10;2.30;;;;;;;;;;6324436;28;20217;-68
2023/05/02 11:02:31;;;;;;;2.37;2.20;;;;;;;;;;6301468;28;20217;-67
2023/05/02 11:05:35;;;;;;;2.50;2.30;;;;;;;;;;6299969;28;20189;-67
2023/05/02 11:08:36;;;;;;;2.93;2.60;;;;;;;;;;6278292;28;20190;-66
2023/05/02 11:11:42;;;;;;;2.40;2.20;;;;;;;;;;6307584;28;20200;-67
2023/05/02 11:14:43;;;;;;;4.23;2.50;;;;;;;;;;6282311;28;20197;-66
2023/05/02 11:18:01;;;;;;;2.90;2.60;;;;;;;;;;6292613;28;20560;-66
2023/05/02 11:21:27;;;;;;;3.20;2.90;;;;;;;;;;6293667;28;20220;-66
2023/05/02 11:24:41;;;;;;;3.00;2.80;;;;;;;;;;6294551;28;20199;-66
2023/05/02 11:27:45;;;;;;;3.47;2.57;;;;;;;;;;6324737;28;20206;-66
2023/05/02 11:30:47;;;;;;;3.00;2.50;;;;;;;;;;6297268;28;20190;-67
2023/05/02 11:33:55;;;;;;;2.40;2.20;;;;;;;;;;6303129;28;20187;-66
2023/05/02 11:36:56;;;;;;;2.93;2.60;;;;;;;;;;6312511;28;20236;-66
2023/05/02 11:40:09;;;;;;;2.13;1.93;;;;;;;;;;6296303;28;20197;-66
2023/05/02 11:43:15;;;;;;;3.10;2.50;;;;;;;;;;6295668;28;20201;-67
2023/05/02 11:46:19;;;;;;;3.13;2.93;;;;;;;;;;6317476;28;20209;-66
2023/05/02 11:49:20;;;;;;;2.43;2.23;;;;;;;;;;6298813;28;20214;-66
2023/05/02 11:52:21;;;;;;;2.37;2.17;;;;;;;;;;6297394;28;20223;-65
2023/05/02 11:55:22;;;;;;;2.77;2.57;;;;;;;;;;6290783;28;20327;-65
2023/05/02 11:58:24;;;;;;;2.10;1.90;;;;;;;;;;6304351;28;20189;-65
2023/05/02 12:01:25;;;;;;;2.57;2.37;;;;;;;;;;6289726;28;20206;-64
2023/05/02 12:04:27;;;;;;;2.30;2.10;;;;;;;;;;6310062;28;20188;-64
2023/05/02 12:07:44;;;;;;;2.40;2.20;;;;;;;;;;6307944;28;20204;-64
2023/05/02 12:10:45;;;;;;;3.00;2.00;;;;;;;;;;6312073;28;20185;-64
2023/05/02 12:13:47;;;;;;;2.60;2.40;;;;;;;;;;6283542;28;20275;-63
2023/05/02 12:16:48;;;;;;;2.67;2.43;;;;;;;;;;6308938;28;20225;-62
2023/05/02 12:19:49;;;;;;;2.90;2.03;;;;;;;;;;6300246;28;20197;-64
2023/05/02 12:22:50;;;;;;;2.97;2.33;;;;;;;;;;6309143;28;20226;-62
2023/05/02 12:25:52;;;;;;;2.33;2.13;;;;;;;;;;6299938;28;20203;-64
2023/05/02 12:28:53;;;;;;;2.57;2.37;;;;;;;;;;6294887;28;20220;-64
2023/05/02 12:31:54;;;;;;;1.77;1.67;;;;;;;;;;6282548;28;20205;-66
2023/05/02 12:34:55;;;;;;;2.73;2.17;;;;;;;;;;6283313;28;20216;-67
2023/05/02 12:38:12;;;;;;;2.30;2.10;;;;;;;;;;6297672;28;20225;-65
2023/05/02 12:41:13;;;;;;;2.37;2.17;;;;;;;;;;6294492;28;20206;-63
2023/05/02 12:44:14;;;;;;;2.10;2.00;;;;;;;;;;6308652;28;20233;-63
2023/05/02 12:47:16;;;;;;;2.40;2.17;;;;;;;;;;6294157;28;20182;-62
2023/05/02 12:50:17;;;;;;;2.07;1.97;;;;;;;;;;6303564;28;20195;-62
2023/05/02 12:53:37;;;;;;;2.10;1.90;;;;;;;;;;6288018;28;20234;-63
2023/05/02 12:56:39;;;;;;;2.73;1.97;;;;;;;;;;6285395;28;20197;-63
2023/05/02 12:59:40;;;;;;;2.30;1.90;;;;;;;;;;6303544;28;20198;-62
2023/05/02 13:02:41;;;;;;;2.97;2.10;;;;;;;;;;6292601;28;20228;-62
2023/05/02 13:05:42;;;;;;;2.40;2.20;;;;;;;;;;6315310;28;20272;-62
2023/05/02 13:08:43;;;;;;;2.50;2.17;;;;;;;;;;6302680;28;20200;-62
2023/05/02 13:11:44;;;;;;;2.77;2.57;;;;;;;;;;6284832;28;20204;-62
2023/05/02 13:14:45;;;;;;;3.23;2.37;;;;;;;;;;6291709;28;20200;-62
2023/05/02 13:17:47;;;;;;;2.50;2.30;;;;;;;;;;6280998;28;20246;-63
2023/05/02 13:20:48;;;;;;;2.60;2.40;;;;;;;;;;6311278;28;20189;-63
2023/05/02 13:23:50;;;;;;;2.77;2.47;;;;;;;;;;6275377;28;20288;-63
2023/05/02 13:26:51;;;;;;;2.60;2.40;;;;;;;;;;6286283;28;20330;-62
2023/05/02 13:29:52;;;;;;;2.53;2.33;;;;;;;;;;6294504;28;20204;-62
2023/05/02 13:32:53;;;;;;;2.67;2.47;;;;;;;;;;6305849;28;20193;-62
2023/05/02 13:35:54;;;;;;;2.70;2.23;;;;;;;;;;6306461;28;20692;-62
2023/05/02 13:38:56;;;;;;;2.40;2.13;;;;;;;;;;6306154;28;20199;-62
2023/05/02 13:41:57;;;;;;;3.10;2.80;;;;;;;;;;6317999;28;20205;-62
2023/05/02 13:44:58;;;;;;;2.20;2.00;;;;;;;;;;6296601;28;20197;-62
2023/05/02 13:47:59;;;;;;;2.37;2.00;;;;;;;;;;6288130;28;20194;-62
2023/05/02 13:51:00;;;;;;;2.27;2.13;;;;;;;;;;6292043;28;20185;-62
2023/05/02 13:54:01;;;;;;;4.37;2.30;;;;;;;;;;6298497;28;20289;-62
2023/05/02 13:57:03;;;;;;;2.97;1.83;;;;;;;;;;6323261;28;20193;-62
2023/05/02 14:00:07;;;;;;;2.37;1.63;;;;;;;;;;6288000;28;20197;-62
2023/05/02 14:03:09;;;;;;;2.33;2.13;;;;;;;;;;6303223;28;20205;-63
2023/05/02 14:06:10;;;;;;;3.80;1.73;;;;;;;;;;6307766;28;20233;-62
2023/05/02 14:09:12;;;;;;;1.40;1.30;;;;;;;;;;6294803;28;20202;-62
2023/05/02 14:12:13;;;;;;;2.00;1.90;;;;;;;;;;6275413;28;20204;-62
2023/05/02 14:15:14;;;;;;;1.20;1.10;;;;;;;;;;6295611;28;20205;-63
2023/05/02 14:18:17;;;;;;;1.47;1.30;;;;;;;;;;6294561;28;20246;-62
2023/05/02 14:21:18;;;;;;;1.60;1.50;;;;;;;;;;6289463;28;20213;-62
2023/05/02 14:24:19;;;;;;;1.40;1.30;;;;;;;;;;6281550;28;20223;-63
2023/05/02 14:27:21;;;;;;;1.53;1.20;;;;;;;;;;6292420;28;20201;-63
2023/05/02 14:30:22;;;;;;;2.10;1.40;;;;;;;;;;6301670;28;20201;-63
2023/05/02 14:33:23;;;;;;;1.60;1.20;;;;;;;;;;6318183;28;20216;-63
2023/05/02 14:36:25;;;;;;;1.20;1.10;;;;;;;;;;6291249;28;20237;-63
2023/05/02 14:39:27;;;;;;;1.20;1.10;;;;;;;;;;6298810;28;20247;-63
2023/05/02 14:42:28;;;;;;;1.10;1.00;;;;;;;;;;6310982;28;20220;-62
2023/05/02 14:45:29;;;;;;;1.00;0.90;;;;;;;;;;6285870;28;20197;-62
2023/05/02 14:48:30;;;;;;;1.60;1.50;;;;;;;;;;6299717;28;20189;-62
2023/05/02 14:51:31;;;;;;;1.20;1.10;;;;;;;;;;6307179;28;20201;-62
2023/05/02 14:54:32;;;;;;;2.17;1.10;;;;;;;;;;6314310;28;20192;-63
2023/05/02 14:57:34;;;;;;;1.10;1.00;;;;;;;;;;6296542;28;20210;-63
2023/05/02 15:00:36;;;;;;;1.00;0.90;;;;;;;;;;6279158;28;20198;-64
2023/05/02 15:03:37;;;;;;;1.10;1.00;;;;;;;;;;6293874;28;20247;-64
2023/05/02 15:06:38;;;;;;;1.10;1.00;;;;;;;;;;6320590;28;20193;-64
2023/05/02 15:09:40;;;;;;;1.20;1.10;;;;;;;;;;6298980;28;20199;-63
2023/05/02 15:12:42;;;;;;;1.10;1.00;;;;;;;;;;6289762;28;20247;-63
2023/05/02 15:15:45;;;;;;;1.37;0.80;;;;;;;;;;6305693;28;20246;-63
2023/05/02 15:18:47;;;;;;;1.23;1.13;;;;;;;;;;6306431;28;20193;-63
2023/05/02 15:21:48;;;;;;;0.90;0.90;;;;;;;;;;6307473;28;20249;-61
2023/05/02 15:24:49;;;;;;;1.30;1.20;;;;;;;;;;6308223;28;20190;-63
2023/05/02 15:27:51;;;;;;;0.83;0.83;;;;;;;;;;6304909;28;20190;-64
2023/05/02 15:30:52;;;;;;;1.20;1.00;;;;;;;;;;6277756;28;20196;-63
2023/05/02 15:33:53;;;;;;;2.17;1.10;;;;;;;;;;6296784;28;20197;-62
2023/05/02 15:36:55;;;;;;;0.87;0.87;;;;;;;;;;6292697;28;20291;-63
2023/05/02 15:39:56;;;;;;;1.30;1.10;;;;;;;;;;6294877;28;20243;-66
2023/05/02 15:42:57;;;;;;;1.60;1.00;;;;;;;;;;6295473;28;20213;-65
2023/05/02 15:45:59;;;;;;;1.50;1.07;;;;;;;;;;6277819;28;20184;-64
2023/05/02 15:49:00;;;;;;;2.23;1.30;;;;;;;;;;6314832;28;20216;-62
2023/05/02 15:52:01;;;;;;;1.70;1.53;;;;;;;;;;6297324;28;20272;-63
2023/05/02 15:55:03;;;;;;;2.57;1.70;;;;;;;;;;6304519;28;20219;-63
2023/05/02 15:58:04;;;;;;;4.83;1.63;;;;;;;;;;6305938;28;20215;-62
2023/05/02 16:01:05;;;;;;;1.27;1.00;;;;;;;;;;6313340;28;20193;-62
2023/05/02 16:04:08;;;;;;;1.10;1.00;;;;;;;;;;6286511;28;20221;-62
2023/05/02 16:07:09;;;;;;;2.17;1.17;;;;;;;;;;6291568;28;20185;-63
2023/05/02 16:10:10;;;;;;;1.50;1.30;;;;;;;;;;6313161;28;20185;-63
2023/05/02 16:13:12;;;;;;;1.37;1.00;;;;;;;;;;6282408;28;20192;-63
2023/05/02 16:16:13;;;;;;;2.27;1.50;;;;;;;;;;6317377;28;20252;-65
2023/05/02 16:19:14;;;;;;;1.30;1.20;;;;;;;;;;6291299;28;20216;-64
2023/05/02 16:22:15;;;;;;;1.50;1.30;;;;;;;;;;6284907;28;20217;-64
2023/05/02 16:25:17;;;;;;;1.10;1.00;;;;;;;;;;6299928;28;20188;-64
2023/05/02 16:28:18;;;;;;;2.17;1.20;;;;;;;;;;6300486;28;20197;-65
2023/05/02 16:31:19;;;;;;;1.40;1.10;;;;;;;;;;6272672;28;20186;-65
2023/05/02 16:34:20;;;;;;;1.00;1.00;;;;;;;;;;6311057;28;20193;-65
2023/05/02 16:37:21;;;;;;;5.20;1.13;;;;;;;;;;6280550;28;20240;-64
2023/05/02 16:40:22;;;;;;;1.27;1.17;;;;;;;;;;6286910;28;20185;-64
2023/05/02 16:43:24;;;;;;;1.27;1.03;;;;;;;;;;6284253;28;20224;-64
2023/05/02 16:46:25;;;;;;;1.17;1.10;;;;;;;;;;6331500;28;20210;-64
2023/05/02 16:49:26;;;;;;;1.33;1.23;;;;;;;;;;6294708;28;20189;-64
2023/05/02 16:52:27;;;;;;;1.20;1.10;;;;;;;;;;6283458;28;20187;-64
2023/05/02 16:55:29;;;;;;;1.10;1.00;;;;;;;;;;6293182;28;20190;-64
2023/05/02 16:58:30;;;;;;;1.37;1.23;;;;;;;;;;6280150;28;20192;-67
2023/05/02 17:01:31;;;;;;;1.27;1.17;;;;;;;;;;6300727;28;20242;-63
2023/05/02 17:04:32;;;;;;;1.20;1.10;;;;;;;;;;6302478;28;20193;-62
2023/05/02 17:07:33;;;;;;;2.03;0.83;;;;;;;;;;6296655;28;20249;-61
2023/05/02 17:10:34;;;;;;;1.20;1.10;;;;;;;;;;6294421;28;20239;-61
2023/05/02 17:13:35;;;;;;;1.47;1.20;;;;;;;;;;6288978;28;20298;-62
2023/05/02 17:16:36;;;;;;;0.90;0.90;;;;;;;;;;6285565;28;20193;-62
2023/05/02 17:19:38;;;;;;;0.97;0.97;;;;;;;;;;6288200;28;20192;-62
2023/05/02 17:22:40;;;;;;;1.10;1.00;;;;;;;;;;6281508;28;20212;-64
2023/05/02 17:25:41;;;;;;;0.97;0.90;;;;;;;;;;6299242;28;20185;-62
2023/05/02 17:28:43;;;;;;;2.43;1.10;;;;;;;;;;6284169;28;20189;-63
2023/05/02 17:31:44;;;;;;;1.10;1.00;;;;;;;;;;6304579;28;20255;-64
2023/05/02 17:34:45;;;;;;;1.30;1.20;;;;;;;;;;6318192;28;20196;-64
2023/05/02 17:37:46;;;;;;;1.37;1.27;;;;;;;;;;6306156;28;20232;-63
2023/05/02 17:40:48;;;;;;;1.47;1.00;;;;;;;;;;6300245;28;20193;-63
2023/05/02 17:43:49;;;;;;;1.37;1.27;;;;;;;;;;6298371;28;20209;-63
2023/05/02 17:46:50;;;;;;;1.20;1.10;;;;;;;;;;6291529;28;20195;-63
2023/05/02 17:49:52;;;;;;;1.30;1.20;;;;;;;;;;6291565;28;20189;-63
2023/05/02 17:52:53;;;;;;;1.60;1.50;;;;;;;;;;6294449;28;20197;-63
2023/05/02 17:55:54;;;;;;;1.77;1.67;;;;;;;;;;6280131;28;20192;-63
2023/05/02 17:58:56;;;;;;;1.73;1.63;;;;;;;;;;6303390;28;20200;-63
2023/05/02 18:01:57;;;;;;;2.57;1.83;;;;;;;;;;6295792;28;20259;-63
2023/05/02 18:05:00;;;;;;;1.60;1.50;;;;;;;;;;6310971;28;20277;-63
2023/05/02 18:08:01;;;;;;;1.83;1.60;;;;;;;;;;6312160;28;20201;-63
2023/05/02 18:11:02;;;;;;;1.60;1.50;;;;;;;;;;6289307;28;20193;-63